sensor_id;sensor_type;location;lat;lon;timestamp;P1;durP1;ratioP1;P2;durP2;ratioP2
32872;SDS011;19224;52.462;16.898;2023-07-29T00:01:34;5.78;;;3.87;;
32872;SDS011;19224;52.462;16.898;2023-07-29T00:04:08;3.85;;;3.02;;
32872;SDS011;19224;52.462;16.898;2023-07-29T00:06:40;8.35;;;3.70;;
32872;SDS011;19224;52.462;16.898;2023-07-29T00:09:13;8.28;;;2.95;;
32872;SDS011;19224;52.462;16.898;2023-07-29T00:11:43;6.70;;;3.08;;
32872;SDS011;19224;52.462;16.898;2023-07-29T00:14:16;5.22;;;3.10;;
32872;SDS011;19224;52.462;16.898;2023-07-29T00:16:47;6.55;;;3.25;;
32872;SDS011;19224;52.462;16.898;2023-07-29T00:19:17;7.58;;;3.33;;
32872;SDS011;19224;52.462;16.898;2023-07-29T00:21:54;5.42;;;3.33;;
32872;SDS011;19224;52.462;16.898;2023-07-29T00:24:25;10.28;;;3.72;;
32872;SDS011;19224;52.462;16.898;2023-07-29T00:26:58;4.65;;;3.52;;
32872;SDS011;19224;52.462;16.898;2023-07-29T00:29:28;6.30;;;3.40;;
32872;SDS011;19224;52.462;16.898;2023-07-29T00:32:05;5.33;;;3.20;;
32872;SDS011;19224;52.462;16.898;2023-07-29T00:34:34;7.58;;;3.08;;
32872;SDS011;19224;52.462;16.898;2023-07-29T00:37:06;8.33;;;3.08;;
32872;SDS011;19224;52.462;16.898;2023-07-29T00:39:39;5.03;;;3.60;;
32872;SDS011;19224;52.462;16.898;2023-07-29T00:42:10;5.28;;;3.30;;
32872;SDS011;19224;52.462;16.898;2023-07-29T00:44:44;3.77;;;3.37;;
32872;SDS011;19224;52.462;16.898;2023-07-29T00:47:15;6.75;;;3.60;;
32872;SDS011;19224;52.462;16.898;2023-07-29T00:49:46;4.55;;;3.30;;
32872;SDS011;19224;52.462;16.898;2023-07-29T00:52:21;8.33;;;3.80;;
32872;SDS011;19224;52.462;16.898;2023-07-29T00:54:51;5.50;;;4.10;;
32872;SDS011;19224;52.462;16.898;2023-07-29T00:57:22;5.42;;;3.33;;
32872;SDS011;19224;52.462;16.898;2023-07-29T00:59:53;11.40;;;4.10;;
32872;SDS011;19224;52.462;16.898;2023-07-29T01:02:25;7.90;;;3.37;;
32872;SDS011;19224;52.462;16.898;2023-07-29T01:04:57;6.97;;;3.70;;
32872;SDS011;19224;52.462;16.898;2023-07-29T01:10:19;7.00;;;4.05;;
32872;SDS011;19224;52.462;16.898;2023-07-29T01:13:37;7.33;;;3.40;;
32872;SDS011;19224;52.462;16.898;2023-07-29T01:16:09;4.33;;;3.60;;
32872;SDS011;19224;52.462;16.898;2023-07-29T01:18:48;8.48;;;3.95;;
32872;SDS011;19224;52.462;16.898;2023-07-29T01:21:21;5.50;;;3.35;;
32872;SDS011;19224;52.462;16.898;2023-07-29T01:23:53;6.67;;;3.30;;
32872;SDS011;19224;52.462;16.898;2023-07-29T01:26:33;6.90;;;3.50;;
32872;SDS011;19224;52.462;16.898;2023-07-29T01:29:04;7.17;;;3.55;;
32872;SDS011;19224;52.462;16.898;2023-07-29T01:31:36;4.60;;;3.83;;
32872;SDS011;19224;52.462;16.898;2023-07-29T01:34:13;6.00;;;3.90;;
32872;SDS011;19224;52.462;16.898;2023-07-29T01:36:57;6.95;;;3.40;;
32872;SDS011;19224;52.462;16.898;2023-07-29T01:39:30;4.28;;;3.55;;
32872;SDS011;19224;52.462;16.898;2023-07-29T01:42:04;4.58;;;3.77;;
32872;SDS011;19224;52.462;16.898;2023-07-29T01:44:36;7.35;;;4.35;;
32872;SDS011;19224;52.462;16.898;2023-07-29T01:47:12;21.55;;;4.50;;
32872;SDS011;19224;52.462;16.898;2023-07-29T01:49:45;3.87;;;3.47;;
32872;SDS011;19224;52.462;16.898;2023-07-29T01:52:15;5.55;;;3.30;;
32872;SDS011;19224;52.462;16.898;2023-07-29T01:54:48;6.08;;;3.90;;
32872;SDS011;19224;52.462;16.898;2023-07-29T01:57:24;4.92;;;4.20;;
32872;SDS011;19224;52.462;16.898;2023-07-29T01:59:58;4.92;;;3.70;;
32872;SDS011;19224;52.462;16.898;2023-07-29T02:02:29;6.37;;;3.80;;
32872;SDS011;19224;52.462;16.898;2023-07-29T02:05:03;5.05;;;3.90;;
32872;SDS011;19224;52.462;16.898;2023-07-29T02:07:35;7.30;;;4.05;;
32872;SDS011;19224;52.462;16.898;2023-07-29T02:10:06;8.80;;;4.00;;
32872;SDS011;19224;52.462;16.898;2023-07-29T02:12:37;8.65;;;4.20;;
32872;SDS011;19224;52.462;16.898;2023-07-29T02:15:10;6.33;;;4.17;;
32872;SDS011;19224;52.462;16.898;2023-07-29T02:17:41;7.58;;;3.95;;
32872;SDS011;19224;52.462;16.898;2023-07-29T02:20:13;4.80;;;4.03;;
32872;SDS011;19224;52.462;16.898;2023-07-29T02:22:45;7.05;;;3.80;;
32872;SDS011;19224;52.462;16.898;2023-07-29T02:25:16;10.25;;;3.95;;
32872;SDS011;19224;52.462;16.898;2023-07-29T02:27:46;9.40;;;3.83;;
32872;SDS011;19224;52.462;16.898;2023-07-29T02:30:18;7.78;;;4.05;;
32872;SDS011;19224;52.462;16.898;2023-07-29T02:32:49;5.10;;;3.67;;
32872;SDS011;19224;52.462;16.898;2023-07-29T02:35:20;7.25;;;3.67;;
32872;SDS011;19224;52.462;16.898;2023-07-29T02:37:50;5.65;;;4.40;;
32872;SDS011;19224;52.462;16.898;2023-07-29T02:40:20;5.17;;;3.55;;
32872;SDS011;19224;52.462;16.898;2023-07-29T02:42:52;7.42;;;3.33;;
32872;SDS011;19224;52.462;16.898;2023-07-29T02:45:23;5.03;;;2.80;;
32872;SDS011;19224;52.462;16.898;2023-07-29T02:47:54;4.97;;;2.62;;
32872;SDS011;19224;52.462;16.898;2023-07-29T02:50:26;4.10;;;3.00;;
32872;SDS011;19224;52.462;16.898;2023-07-29T02:52:56;8.98;;;3.33;;
32872;SDS011;19224;52.462;16.898;2023-07-29T02:55:27;7.83;;;4.00;;
32872;SDS011;19224;52.462;16.898;2023-07-29T02:57:59;4.55;;;3.47;;
32872;SDS011;19224;52.462;16.898;2023-07-29T03:00:31;6.03;;;3.90;;
32872;SDS011;19224;52.462;16.898;2023-07-29T03:03:03;4.90;;;3.50;;
32872;SDS011;19224;52.462;16.898;2023-07-29T03:05:34;7.75;;;4.35;;
32872;SDS011;19224;52.462;16.898;2023-07-29T03:08:05;7.60;;;4.53;;
32872;SDS011;19224;52.462;16.898;2023-07-29T03:10:36;11.03;;;3.83;;
32872;SDS011;19224;52.462;16.898;2023-07-29T03:13:06;10.08;;;3.98;;
32872;SDS011;19224;52.462;16.898;2023-07-29T03:15:37;10.63;;;4.28;;
32872;SDS011;19224;52.462;16.898;2023-07-29T03:18:13;8.78;;;4.78;;
32872;SDS011;19224;52.462;16.898;2023-07-29T03:20:39;9.40;;;5.10;;
32872;SDS011;19224;52.462;16.898;2023-07-29T03:23:09;9.58;;;4.08;;
32872;SDS011;19224;52.462;16.898;2023-07-29T03:25:40;10.23;;;5.05;;
32872;SDS011;19224;52.462;16.898;2023-07-29T03:28:15;9.93;;;4.95;;
32872;SDS011;19224;52.462;16.898;2023-07-29T03:30:47;9.38;;;4.80;;
32872;SDS011;19224;52.462;16.898;2023-07-29T03:33:21;10.13;;;5.45;;
32872;SDS011;19224;52.462;16.898;2023-07-29T03:35:53;13.53;;;6.62;;
32872;SDS011;19224;52.462;16.898;2023-07-29T03:38:25;12.55;;;5.60;;
32872;SDS011;19224;52.462;16.898;2023-07-29T03:40:57;6.85;;;5.80;;
32872;SDS011;19224;52.462;16.898;2023-07-29T03:43:30;10.63;;;4.67;;
32872;SDS011;19224;52.462;16.898;2023-07-29T03:46:03;6.92;;;4.65;;
32872;SDS011;19224;52.462;16.898;2023-07-29T03:48:41;5.40;;;4.35;;
32872;SDS011;19224;52.462;16.898;2023-07-29T03:51:14;5.45;;;4.40;;
32872;SDS011;19224;52.462;16.898;2023-07-29T03:53:50;6.00;;;4.35;;
32872;SDS011;19224;52.462;16.898;2023-07-29T03:56:19;6.80;;;4.10;;
32872;SDS011;19224;52.462;16.898;2023-07-29T03:59:03;4.58;;;4.17;;
32872;SDS011;19224;52.462;16.898;2023-07-29T04:01:36;5.20;;;4.15;;
32872;SDS011;19224;52.462;16.898;2023-07-29T04:04:09;5.00;;;4.22;;
32872;SDS011;19224;52.462;16.898;2023-07-29T04:06:41;8.23;;;4.42;;
32872;SDS011;19224;52.462;16.898;2023-07-29T04:09:11;4.40;;;4.00;;
32872;SDS011;19224;52.462;16.898;2023-07-29T04:11:45;5.50;;;4.08;;
32872;SDS011;19224;52.462;16.898;2023-07-29T04:14:17;5.08;;;4.45;;
32872;SDS011;19224;52.462;16.898;2023-07-29T04:16:49;5.45;;;3.87;;
32872;SDS011;19224;52.462;16.898;2023-07-29T04:19:22;5.22;;;3.80;;
32872;SDS011;19224;52.462;16.898;2023-07-29T04:21:54;4.25;;;3.58;;
32872;SDS011;19224;52.462;16.898;2023-07-29T04:24:27;4.40;;;3.92;;
32872;SDS011;19224;52.462;16.898;2023-07-29T04:26:58;7.62;;;3.98;;
32872;SDS011;19224;52.462;16.898;2023-07-29T04:29:28;7.10;;;3.98;;
32872;SDS011;19224;52.462;16.898;2023-07-29T04:31:59;4.10;;;3.70;;
32872;SDS011;19224;52.462;16.898;2023-07-29T04:34:32;4.92;;;4.25;;
32872;SDS011;19224;52.462;16.898;2023-07-29T04:37:02;4.45;;;4.05;;
32872;SDS011;19224;52.462;16.898;2023-07-29T04:39:33;7.60;;;4.67;;
32872;SDS011;19224;52.462;16.898;2023-07-29T04:42:06;9.33;;;4.00;;
32872;SDS011;19224;52.462;16.898;2023-07-29T04:44:36;4.50;;;4.10;;
32872;SDS011;19224;52.462;16.898;2023-07-29T04:47:09;6.58;;;5.20;;
32872;SDS011;19224;52.462;16.898;2023-07-29T04:49:40;7.45;;;4.70;;
32872;SDS011;19224;52.462;16.898;2023-07-29T04:52:11;5.72;;;4.47;;
32872;SDS011;19224;52.462;16.898;2023-07-29T04:54:45;7.60;;;4.87;;
32872;SDS011;19224;52.462;16.898;2023-07-29T04:57:17;7.20;;;5.00;;
32872;SDS011;19224;52.462;16.898;2023-07-29T04:59:47;10.03;;;6.10;;
32872;SDS011;19224;52.462;16.898;2023-07-29T05:02:18;7.00;;;5.17;;
32872;SDS011;19224;52.462;16.898;2023-07-29T05:04:48;11.10;;;5.35;;
32872;SDS011;19224;52.462;16.898;2023-07-29T05:07:23;6.03;;;5.20;;
32872;SDS011;19224;52.462;16.898;2023-07-29T05:09:54;7.35;;;5.33;;
32872;SDS011;19224;52.462;16.898;2023-07-29T05:12:26;7.70;;;4.92;;
32872;SDS011;19224;52.462;16.898;2023-07-29T05:15:00;11.70;;;5.33;;
32872;SDS011;19224;52.462;16.898;2023-07-29T05:17:34;9.10;;;5.00;;
32872;SDS011;19224;52.462;16.898;2023-07-29T05:20:04;7.97;;;5.12;;
32872;SDS011;19224;52.462;16.898;2023-07-29T05:22:41;6.78;;;5.10;;
32872;SDS011;19224;52.462;16.898;2023-07-29T05:25:12;7.45;;;5.17;;
32872;SDS011;19224;52.462;16.898;2023-07-29T05:27:42;6.97;;;5.17;;
32872;SDS011;19224;52.462;16.898;2023-07-29T05:30:14;10.53;;;5.05;;
32872;SDS011;19224;52.462;16.898;2023-07-29T05:32:47;5.90;;;5.12;;
32872;SDS011;19224;52.462;16.898;2023-07-29T05:35:20;8.65;;;5.33;;
32872;SDS011;19224;52.462;16.898;2023-07-29T05:37:51;6.97;;;5.37;;
32872;SDS011;19224;52.462;16.898;2023-07-29T05:40:22;6.67;;;5.53;;
32872;SDS011;19224;52.462;16.898;2023-07-29T05:42:52;7.83;;;5.45;;
32872;SDS011;19224;52.462;16.898;2023-07-29T05:45:24;9.20;;;5.45;;
32872;SDS011;19224;52.462;16.898;2023-07-29T05:47:54;6.60;;;5.58;;
32872;SDS011;19224;52.462;16.898;2023-07-29T05:50:26;6.55;;;5.17;;
32872;SDS011;19224;52.462;16.898;2023-07-29T05:52:56;8.83;;;4.95;;
32872;SDS011;19224;52.462;16.898;2023-07-29T05:55:30;5.85;;;5.17;;
32872;SDS011;19224;52.462;16.898;2023-07-29T05:57:59;6.22;;;5.28;;
32872;SDS011;19224;52.462;16.898;2023-07-29T06:00:31;6.42;;;5.50;;
32872;SDS011;19224;52.462;16.898;2023-07-29T06:03:04;8.63;;;5.35;;
32872;SDS011;19224;52.462;16.898;2023-07-29T06:05:36;8.00;;;5.42;;
32872;SDS011;19224;52.462;16.898;2023-07-29T06:08:07;6.12;;;5.53;;
32872;SDS011;19224;52.462;16.898;2023-07-29T06:10:37;8.65;;;4.85;;
32872;SDS011;19224;52.462;16.898;2023-07-29T06:13:13;8.08;;;5.45;;
32872;SDS011;19224;52.462;16.898;2023-07-29T06:15:43;6.50;;;5.90;;
32872;SDS011;19224;52.462;16.898;2023-07-29T06:18:13;9.03;;;6.30;;
32872;SDS011;19224;52.462;16.898;2023-07-29T06:20:43;5.83;;;5.28;;
32872;SDS011;19224;52.462;16.898;2023-07-29T06:23:14;8.15;;;5.92;;
32872;SDS011;19224;52.462;16.898;2023-07-29T06:25:44;6.72;;;6.03;;
32872;SDS011;19224;52.462;16.898;2023-07-29T06:28:16;6.55;;;5.80;;
32872;SDS011;19224;52.462;16.898;2023-07-29T06:30:46;9.35;;;6.45;;
32872;SDS011;19224;52.462;16.898;2023-07-29T06:33:21;9.63;;;6.03;;
32872;SDS011;19224;52.462;16.898;2023-07-29T06:35:52;6.67;;;5.25;;
32872;SDS011;19224;52.462;16.898;2023-07-29T06:38:22;8.85;;;6.05;;
32872;SDS011;19224;52.462;16.898;2023-07-29T06:40:53;7.47;;;6.33;;
32872;SDS011;19224;52.462;16.898;2023-07-29T06:43:23;7.60;;;6.03;;
32872;SDS011;19224;52.462;16.898;2023-07-29T06:45:54;11.40;;;6.30;;
32872;SDS011;19224;52.462;16.898;2023-07-29T06:48:24;7.87;;;6.17;;
32872;SDS011;19224;52.462;16.898;2023-07-29T06:50:55;9.55;;;6.78;;
32872;SDS011;19224;52.462;16.898;2023-07-29T06:53:27;8.93;;;6.58;;
32872;SDS011;19224;52.462;16.898;2023-07-29T06:55:59;8.08;;;5.50;;
32872;SDS011;19224;52.462;16.898;2023-07-29T06:58:29;7.00;;;5.62;;
32872;SDS011;19224;52.462;16.898;2023-07-29T07:01:00;9.75;;;6.12;;
32872;SDS011;19224;52.462;16.898;2023-07-29T07:03:35;8.28;;;6.03;;
32872;SDS011;19224;52.462;16.898;2023-07-29T07:06:06;9.80;;;5.65;;
32872;SDS011;19224;52.462;16.898;2023-07-29T07:08:39;7.78;;;5.55;;
32872;SDS011;19224;52.462;16.898;2023-07-29T07:11:10;8.03;;;5.20;;
32872;SDS011;19224;52.462;16.898;2023-07-29T07:13:41;13.48;;;5.70;;
32872;SDS011;19224;52.462;16.898;2023-07-29T07:16:14;8.73;;;5.25;;
32872;SDS011;19224;52.462;16.898;2023-07-29T07:18:49;5.87;;;5.28;;
32872;SDS011;19224;52.462;16.898;2023-07-29T07:21:25;9.00;;;4.90;;
32872;SDS011;19224;52.462;16.898;2023-07-29T07:23:56;8.78;;;5.40;;
32872;SDS011;19224;52.462;16.898;2023-07-29T07:26:27;7.12;;;4.95;;
32872;SDS011;19224;52.462;16.898;2023-07-29T07:28:59;8.33;;;4.90;;
32872;SDS011;19224;52.462;16.898;2023-07-29T07:31:32;8.00;;;4.97;;
32872;SDS011;19224;52.462;16.898;2023-07-29T07:34:09;5.67;;;5.10;;
32872;SDS011;19224;52.462;16.898;2023-07-29T07:36:35;4.60;;;4.20;;
32872;SDS011;19224;52.462;16.898;2023-07-29T07:39:05;5.78;;;4.25;;
32872;SDS011;19224;52.462;16.898;2023-07-29T07:41:35;5.30;;;4.12;;
32872;SDS011;19224;52.462;16.898;2023-07-29T07:44:06;7.20;;;4.55;;
32872;SDS011;19224;52.462;16.898;2023-07-29T07:46:38;4.90;;;4.40;;
32872;SDS011;19224;52.462;16.898;2023-07-29T07:49:08;5.42;;;3.70;;
32872;SDS011;19224;52.462;16.898;2023-07-29T07:51:40;5.33;;;4.55;;
32872;SDS011;19224;52.462;16.898;2023-07-29T07:54:22;9.95;;;5.42;;
32872;SDS011;19224;52.462;16.898;2023-07-29T07:56:46;5.20;;;4.70;;
32872;SDS011;19224;52.462;16.898;2023-07-29T07:59:17;6.12;;;3.67;;
32872;SDS011;19224;52.462;16.898;2023-07-29T08:01:48;3.70;;;3.40;;
32872;SDS011;19224;52.462;16.898;2023-07-29T08:04:20;3.95;;;3.55;;
32872;SDS011;19224;52.462;16.898;2023-07-29T08:06:50;6.30;;;3.98;;
32872;SDS011;19224;52.462;16.898;2023-07-29T08:09:20;4.58;;;3.65;;
32872;SDS011;19224;52.462;16.898;2023-07-29T08:11:57;5.17;;;3.65;;
32872;SDS011;19224;52.462;16.898;2023-07-29T08:14:29;4.25;;;3.42;;
